Time;durP1;ratioP1;P1;durP2;ratioP2;P2;SDS_P1;SDS_P2;PMS_P1;PMS_P2;Temp;Humidity;BMP_temperature;BMP_pressure;BME280_temperature;BME280_humidity;BME280_pressure;Samples;Min_cycle;Max_cycle;Signal;HPM_P1;HPM_P2
2021/01/06 00:00:43;;;;;;;31.62;10.23;;;;;;;3.10;74.88;96214.45;1771309;79;21139;-54
2021/01/06 00:03:16;;;;;;;30.75;9.80;;;;;;;3.16;74.98;96213.78;1758167;79;21278;-54
2021/01/06 00:05:45;;;;;;;33.98;10.30;;;;;;;3.17;74.65;96218.02;1773001;80;21155;-53
2021/01/06 00:08:12;;;;;;;12.80;8.13;;;;;;;3.10;74.74;96217.02;1750913;80;21107;-53
2021/01/06 00:10:40;;;;;;;32.65;9.43;;;;;;;3.03;74.23;96218.68;1758469;80;21454;-54
2021/01/06 00:13:08;;;;;;;17.65;9.08;;;;;;;2.76;74.75;96225.00;1754070;79;21179;-54
2021/01/06 00:15:36;;;;;;;14.53;8.78;;;;;;;2.61;75.28;96223.56;1765475;80;21277;-55
2021/01/06 00:18:04;;;;;;;18.60;8.55;;;;;;;2.57;75.49;96217.75;1764044;80;21080;-53
2021/01/06 00:20:32;;;;;;;13.43;8.15;;;;;;;2.58;75.74;96223.23;1762633;80;21112;-54
2021/01/06 00:23:00;;;;;;;11.93;7.65;;;;;;;2.66;75.71;96223.72;1755538;79;21127;-54
2021/01/06 00:25:31;;;;;;;33.10;8.05;;;;;;;2.71;75.54;96232.06;1761201;79;21521;-55
2021/01/06 00:27:59;;;;;;;24.85;7.05;;;;;;;2.75;75.02;96229.73;1754317;80;21403;-55
2021/01/06 00:30:33;;;;;;;26.20;7.20;;;;;;;2.75;74.81;96236.13;1750772;80;26159;-54
2021/01/06 00:33:03;;;;;;;23.62;7.47;;;;;;;2.75;74.60;96243.81;1750946;80;21140;-54
2021/01/06 00:35:31;;;;;;;13.93;8.23;;;;;;;2.74;74.41;96247.27;1763030;80;21172;-53
2021/01/06 00:37:59;;;;;;;12.10;7.60;;;;;;;2.74;74.24;96248.55;1748891;80;21196;-53
2021/01/06 00:40:29;;;;;;;10.95;7.17;;;;;;;2.77;74.27;96245.03;1763978;80;21335;-53
2021/01/06 00:42:58;;;;;;;11.00;8.00;;;;;;;2.82;74.13;96248.67;1761076;79;21087;-55
2021/01/06 00:45:26;;;;;;;16.30;7.97;;;;;;;2.79;74.07;96252.66;1760361;80;21107;-55
2021/01/06 00:47:55;;;;;;;16.48;8.35;;;;;;;2.80;74.18;96253.05;1756197;80;22005;-54
2021/01/06 00:50:27;;;;;;;32.17;7.90;;;;;;;2.79;73.87;96257.31;1754673;80;21172;-53
2021/01/06 00:53:02;;;;;;;28.17;7.47;;;;;;;2.73;74.00;96264.84;1747419;80;21285;-54
2021/01/06 00:55:30;;;;;;;12.43;8.45;;;;;;;2.73;73.87;96269.11;1754499;81;21573;-53
2021/01/06 00:57:59;;;;;;;10.43;8.50;;;;;;;2.72;74.06;96270.86;1748457;81;21135;-53
2021/01/06 01:00:29;;;;;;;22.37;8.30;;;;;;;2.81;73.96;96276.47;1748057;81;21560;-54
2021/01/06 01:02:58;;;;;;;18.75;7.85;;;;;;;2.82;73.87;96276.86;1757133;81;21045;-54
2021/01/06 01:05:30;;;;;;;21.97;7.83;;;;;;;2.83;73.85;96275.52;1750994;81;21267;-52
2021/01/06 01:07:58;;;;;;;25.32;7.95;;;;;;;2.88;73.86;96274.86;1746548;81;21089;-54
2021/01/06 01:10:40;;;;;;;40.85;8.55;;;;;;;2.93;73.63;96275.47;1751751;81;21533;-54
2021/01/06 01:13:13;;;;;;;24.90;8.33;;;;;;;2.95;73.34;96272.38;1753224;79;21164;-54
2021/01/06 01:15:41;;;;;;;38.80;9.55;;;;;;;2.98;73.20;96280.40;1753585;80;21227;-53
2021/01/06 01:18:13;;;;;;;13.10;9.03;;;;;;;2.97;73.15;96281.28;1756345;81;21379;-52
2021/01/06 01:20:49;;;;;;;13.98;8.95;;;;;;;2.95;73.06;96277.52;1751529;81;21179;-53
2021/01/06 01:23:19;;;;;;;24.70;8.65;;;;;;;3.00;72.85;96281.16;1752324;81;21192;-54
2021/01/06 01:25:47;;;;;;;20.68;8.18;;;;;;;3.04;72.68;96290.81;1748393;79;21219;-53
2021/01/06 01:28:15;;;;;;;37.23;7.37;;;;;;;3.02;72.36;96293.44;1753725;79;21144;-53
2021/01/06 01:30:43;;;;;;;54.48;7.95;;;;;;;2.90;72.31;96290.16;1757735;81;21258;-53
2021/01/06 01:33:13;;;;;;;87.37;7.80;;;;;;;2.76;72.61;96290.33;1758400;81;21121;-53
2021/01/06 01:35:40;;;;;;;52.50;6.92;;;;;;;2.68;72.61;96287.70;1760783;79;21175;-53
2021/01/06 01:38:20;;;;;;;67.62;7.10;;;;;;;2.58;72.24;96288.55;1755171;81;21167;-52
2021/01/06 01:40:48;;;;;;;12.65;6.72;;;;;;;2.45;72.35;96292.12;1747794;81;21208;-53
2021/01/06 01:43:19;;;;;;;15.90;7.62;;;;;;;2.35;72.72;96289.55;1721365;81;21218;-53
2021/01/06 01:45:52;;;;;;;18.90;8.00;;;;;;;2.34;73.19;96284.88;1753468;81;21385;-53
2021/01/06 01:48:28;;;;;;;29.57;7.30;;;;;;;2.41;73.47;96283.34;1760020;79;21132;-52
2021/01/06 01:51:03;;;;;;;27.42;7.83;;;;;;;2.51;73.44;96291.83;1755485;80;21491;-52
2021/01/06 01:53:35;;;;;;;48.00;8.18;;;;;;;2.58;72.96;96288.55;1763192;80;21116;-54
2021/01/06 01:56:05;;;;;;;29.07;7.97;;;;;;;2.54;72.40;96287.04;1761886;80;21212;-54
2021/01/06 01:58:32;;;;;;;29.70;9.60;;;;;;;2.42;72.48;96289.69;1761647;80;21111;-54
2021/01/06 02:01:00;;;;;;;19.07;9.85;;;;;;;2.33;72.87;96287.50;1764355;79;21651;-53
2021/01/06 02:03:44;;;;;;;22.27;8.68;;;;;;;2.32;72.58;96301.19;1761708;80;21144;-53
2021/01/06 02:06:18;;;;;;;13.60;8.23;;;;;;;2.30;72.31;96300.44;1751250;80;21072;-51
2021/01/06 02:08:53;;;;;;;20.65;7.30;;;;;;;2.25;72.55;96294.22;1773478;79;21619;-54
2021/01/06 02:11:35;;;;;;;21.62;7.87;;;;;;;2.22;72.53;96295.66;1773179;80;21195;-53
2021/01/06 02:14:12;;;;;;;17.30;7.50;;;;;;;2.10;72.24;96292.31;1757192;80;21104;-53
2021/01/06 02:16:59;;;;;;;11.35;8.00;;;;;;;1.93;72.45;96295.58;1756902;80;21631;-54
2021/01/06 02:19:31;;;;;;;8.10;6.45;;;;;;;1.75;72.74;96299.25;1750809;80;21476;-54
2021/01/06 02:21:59;;;;;;;6.90;6.20;;;;;;;1.64;72.68;96296.29;1751017;80;21256;-54
2021/01/06 02:24:27;;;;;;;9.73;7.62;;;;;;;1.45;72.78;96295.74;1723813;82;21075;-53
2021/01/06 02:26:54;;;;;;;8.95;7.33;;;;;;;1.22;73.29;96300.46;1773317;80;21060;-54
2021/01/06 02:29:22;;;;;;;9.73;7.28;;;;;;;1.06;73.80;96300.66;1754566;80;21591;-54
2021/01/06 02:31:50;;;;;;;8.60;7.10;;;;;;;0.96;74.13;96301.89;1754308;80;21178;-53
2021/01/06 02:34:19;;;;;;;9.83;7.53;;;;;;;0.79;74.67;96300.79;1752660;79;21374;-54
2021/01/06 02:36:46;;;;;;;10.23;7.50;;;;;;;0.67;75.01;96305.05;1751600;80;21084;-53
2021/01/06 02:39:13;;;;;;;8.78;6.78;;;;;;;0.62;75.41;96301.38;1769711;80;21064;-53
2021/01/06 02:41:41;;;;;;;8.45;6.65;;;;;;;0.68;75.43;96303.72;1711308;82;21202;-53
2021/01/06 02:44:09;;;;;;;9.10;6.12;;;;;;;0.74;75.27;96300.12;1761649;80;21135;-52
2021/01/06 02:46:37;;;;;;;7.85;6.05;;;;;;;0.82;75.43;96299.41;1763778;80;21200;-55
2021/01/06 02:49:07;;;;;;;10.13;6.12;;;;;;;0.97;75.46;96304.39;1729494;82;21615;-53
2021/01/06 02:51:48;;;;;;;8.70;6.05;;;;;;;1.14;75.22;96306.31;1787741;78;21060;-53
2021/01/06 02:54:22;;;;;;;7.72;5.45;;;;;;;1.31;75.15;96307.39;1768720;79;21064;-55
2021/01/06 02:56:52;;;;;;;6.85;5.87;;;;;;;1.46;74.78;96303.81;1786920;79;21541;-54
2021/01/06 02:59:22;;;;;;;10.43;6.67;;;;;;;1.56;74.29;96306.84;1784464;79;21187;-54
2021/01/06 03:01:50;;;;;;;8.73;5.75;;;;;;;1.68;73.94;96304.24;1783896;79;21543;-53
2021/01/06 03:04:18;;;;;;;8.53;6.30;;;;;;;1.76;73.74;96299.66;1782868;79;21587;-53
2021/01/06 03:06:55;;;;;;;8.73;6.65;;;;;;;1.85;73.14;96306.11;1777112;79;21501;-54
2021/01/06 03:09:42;;;;;;;9.70;6.70;;;;;;;1.92;72.99;96306.70;1789922;79;21038;-53
2021/01/06 03:12:23;;;;;;;10.05;7.10;;;;;;;1.98;72.42;96306.00;1796226;79;22281;-53
2021/01/06 03:14:51;;;;;;;8.28;5.67;;;;;;;1.96;71.95;96310.35;1776473;79;21587;-53
2021/01/06 03:17:20;;;;;;;8.38;5.12;;;;;;;1.92;71.14;96308.80;1784695;79;21144;-53
2021/01/06 03:19:54;;;;;;;5.37;4.35;;;;;;;1.85;71.47;96311.23;1770898;79;21163;-53
2021/01/06 03:22:24;;;;;;;5.60;4.12;;;;;;;1.91;71.39;96313.55;1779491;79;21136;-53
2021/01/06 03:25:07;;;;;;;3.95;3.27;;;;;;;2.00;71.53;96301.64;1779403;79;21367;-54
2021/01/06 03:27:35;;;;;;;3.22;2.85;;;;;;;2.08;71.06;96300.05;1770876;79;21077;-54
2021/01/06 03:30:08;;;;;;;4.30;3.45;;;;;;;2.20;71.07;96303.40;1776348;79;21112;-54
2021/01/06 03:33:03;;;;;;;4.15;3.20;;;;;;;2.31;70.83;96307.23;1787997;79;21052;-53
2021/01/06 03:35:43;;;;;;;3.27;2.98;;;;;;;2.38;71.03;96314.59;1758116;79;21564;-53
2021/01/06 03:38:32;;;;;;;5.17;3.47;;;;;;;2.45;71.11;96319.01;1780900;79;21291;-54
2021/01/06 03:41:00;;;;;;;4.05;3.00;;;;;;;2.52;70.90;96315.27;1767106;81;21152;-52
2021/01/06 03:43:30;;;;;;;4.95;3.62;;;;;;;2.65;70.36;96318.14;1754019;81;21091;-52
2021/01/06 03:46:03;;;;;;;5.00;4.12;;;;;;;2.60;69.79;96312.82;1760867;80;21102;-52
2021/01/06 03:49:01;;;;;;;5.27;4.37;;;;;;;2.55;69.67;96317.71;1856522;76;25631;-53
2021/01/06 03:51:40;;;;;;;4.30;3.35;;;;;;;2.44;69.60;96313.95;1820927;77;21589;-53
2021/01/06 03:54:37;;;;;;;5.05;3.40;;;;;;;2.39;69.04;96320.54;1831179;77;21149;-53
2021/01/06 03:57:05;;;;;;;4.37;3.10;;;;;;;2.37;69.05;96321.88;1827706;77;20947;-54
2021/01/06 03:59:34;;;;;;;3.60;3.20;;;;;;;2.45;69.14;96322.84;1853157;77;21563;-53
2021/01/06 04:02:16;;;;;;;4.15;3.25;;;;;;;2.51;68.54;96317.44;1853891;77;21176;-54
2021/01/06 04:05:02;;;;;;;3.87;2.95;;;;;;;2.61;68.54;96317.06;1818252;77;21101;-53
2021/01/06 04:07:38;;;;;;;2.95;2.47;;;;;;;2.63;67.98;96313.97;1807314;77;21866;-55
2021/01/06 04:10:15;;;;;;;4.62;3.58;;;;;;;2.62;68.23;96318.73;1844309;77;21105;-56
2021/01/06 04:12:43;;;;;;;5.95;4.67;;;;;;;2.63;69.16;96325.50;1839129;77;21101;-56
2021/01/06 04:15:14;;;;;;;5.15;3.77;;;;;;;2.63;69.82;96321.23;1850535;77;21120;-55
2021/01/06 04:17:51;;;;;;;4.37;3.25;;;;;;;2.59;69.01;96322.25;1847950;77;21557;-56
2021/01/06 04:20:37;;;;;;;5.25;4.00;;;;;;;2.59;68.76;96320.97;1848982;77;22252;-56
2021/01/06 04:23:12;;;;;;;5.67;4.28;;;;;;;2.62;67.98;96320.84;1844543;77;21044;-55
2021/01/06 04:25:47;;;;;;;6.95;4.22;;;;;;;2.64;67.94;96320.77;1848780;77;21092;-56
2021/01/06 04:28:28;;;;;;;6.33;3.90;;;;;;;2.61;68.05;96321.72;1846026;77;21100;-57
2021/01/06 04:31:08;;;;;;;4.85;3.55;;;;;;;2.56;68.89;96330.05;1842842;77;21033;-55
2021/01/06 04:33:41;;;;;;;3.20;2.90;;;;;;;2.21;69.38;96319.13;1817863;77;21363;-55
2021/01/06 04:36:13;;;;;;;4.42;3.47;;;;;;;1.92;70.51;96324.61;1783361;78;21125;-58
2021/01/06 04:38:44;;;;;;;5.22;2.77;;;;;;;1.83;71.12;96324.54;1811201;78;21140;-55
2021/01/06 04:41:26;;;;;;;5.95;3.65;;;;;;;1.82;71.54;96319.02;1804788;78;21152;-56
2021/01/06 04:44:45;;;;;;;3.30;2.70;;;;;;;1.83;71.65;96320.25;1779599;78;21125;-55
2021/01/06 04:47:52;;;;;;;2.50;2.05;;;;;;;1.89;71.75;96313.21;1784556;79;21274;-55
2021/01/06 04:51:06;;;;;;;4.85;3.08;;;;;;;1.94;71.34;96318.97;1779429;80;21152;-55
2021/01/06 04:54:15;;;;;;;4.85;4.30;;;;;;;1.97;71.60;96331.22;1777607;80;21132;-55
2021/01/06 04:57:24;;;;;;;5.58;4.62;;;;;;;1.95;70.32;96325.31;1786722;79;21576;-55
2021/01/06 05:00:15;;;;;;;6.72;5.45;;;;;;;1.85;69.63;96329.14;1774946;79;21124;-55
2021/01/06 05:03:13;;;;;;;6.12;4.90;;;;;;;1.70;69.10;96323.37;1774056;80;21383;-55
2021/01/06 05:06:03;;;;;;;5.20;4.45;;;;;;;1.52;69.30;96324.46;1783747;80;21172;-55
2021/01/06 05:08:46;;;;;;;4.70;4.30;;;;;;;1.39;69.52;96320.72;1753430;80;21183;-56
2021/01/06 05:11:34;;;;;;;5.58;4.80;;;;;;;1.26;69.45;96322.45;1788353;80;21077;-56
2021/01/06 05:14:13;;;;;;;5.75;4.53;;;;;;;0.99;70.62;96314.56;1785945;80;21133;-56
2021/01/06 05:16:49;;;;;;;6.20;5.40;;;;;;;0.87;70.82;96319.22;1808931;78;26405;-56
2021/01/06 05:19:23;;;;;;;6.60;5.47;;;;;;;0.83;70.69;96322.77;1806072;78;21062;-55
2021/01/06 05:21:51;;;;;;;6.20;5.00;;;;;;;0.77;70.37;96318.32;1773615;78;21116;-56
2021/01/06 05:24:41;;;;;;;6.87;5.75;;;;;;;0.73;70.86;96321.44;1765679;79;21108;-55
2021/01/06 05:27:23;;;;;;;10.65;7.10;;;;;;;0.70;71.16;96329.20;1780800;80;21147;-57
2021/01/06 05:29:58;;;;;;;6.33;5.30;;;;;;;0.67;70.94;96331.41;1784450;80;21364;-56
2021/01/06 05:32:35;;;;;;;7.92;6.53;;;;;;;0.67;70.75;96331.86;1780072;80;21502;-55
2021/01/06 05:35:14;;;;;;;10.85;7.53;;;;;;;0.60;70.22;96321.48;1778943;79;21565;-55
2021/01/06 05:37:46;;;;;;;9.40;6.90;;;;;;;0.47;70.19;96320.63;1781821;80;21195;-55
2021/01/06 05:40:14;;;;;;;8.50;6.10;;;;;;;0.36;70.32;96332.91;1784502;79;21164;-55
2021/01/06 05:42:55;;;;;;;9.75;6.60;;;;;;;0.27;70.69;96330.24;1770105;79;21423;-55
2021/01/06 05:45:28;;;;;;;8.83;6.67;;;;;;;0.18;71.10;96332.67;1807745;78;21125;-55
2021/01/06 05:48:16;;;;;;;7.00;5.65;;;;;;;0.11;71.54;96337.56;1795326;78;21478;-56
2021/01/06 05:51:01;;;;;;;5.93;5.33;;;;;;;0.13;71.75;96335.82;1763345;80;21097;-55
2021/01/06 05:53:43;;;;;;;7.83;6.00;;;;;;;0.16;71.67;96333.17;1765263;80;21560;-55
2021/01/06 05:56:51;;;;;;;7.92;6.12;;;;;;;0.20;71.76;96326.24;1793161;78;21152;-56
2021/01/06 05:59:46;;;;;;;8.30;6.57;;;;;;;0.32;71.55;96325.81;1854197;75;22658;-55
2021/01/06 06:02:22;;;;;;;8.00;6.58;;;;;;;0.17;71.54;96329.72;1826862;78;21074;-54
2021/01/06 06:05:24;;;;;;;12.07;7.65;;;;;;;0.16;71.73;96328.06;1822695;78;21356;-55
2021/01/06 06:08:15;;;;;;;12.95;8.93;;;;;;;0.17;71.60;96337.83;1830070;77;21603;-55
2021/01/06 06:11:15;;;;;;;11.53;7.58;;;;;;;0.18;71.40;96332.67;1818450;78;21138;-55
2021/01/06 06:14:12;;;;;;;8.28;6.75;;;;;;;0.22;71.29;96338.95;1786555;78;21130;-55
2021/01/06 06:17:01;;;;;;;11.00;7.70;;;;;;;0.21;71.15;96330.44;1813153;78;21102;-55
2021/01/06 06:19:52;;;;;;;12.37;8.50;;;;;;;0.21;71.03;96330.44;1821734;78;21367;-55
2021/01/06 06:22:24;;;;;;;11.08;8.50;;;;;;;0.23;70.74;96330.39;1822669;78;21135;-54
2021/01/06 06:25:00;;;;;;;12.33;8.55;;;;;;;0.24;69.89;96341.00;1756505;81;21093;-55
2021/01/06 06:28:24;;;;;;;13.50;9.10;;;;;;;0.24;69.89;96341.00;1767895;80;21643;-55
2021/01/06 06:31:00;;;;;;;18.30;11.45;;;;;;;0.41;69.96;96340.42;1760377;80;21183;-56
2021/01/06 06:33:32;;;;;;;16.10;9.65;;;;;;;0.88;69.53;96343.86;1750894;82;21247;-55
2021/01/06 06:36:02;;;;;;;13.48;8.68;;;;;;;1.28;68.78;96347.52;1757355;80;21146;-56
2021/01/06 06:38:40;;;;;;;14.33;9.55;;;;;;;1.60;67.90;96351.84;1764130;80;21103;-56
2021/01/06 06:41:28;;;;;;;18.35;11.00;;;;;;;1.82;67.14;96361.23;1728735;82;21199;-56
2021/01/06 06:44:28;;;;;;;16.87;10.30;;;;;;;2.15;66.64;96356.94;1751446;80;21068;-56
2021/01/06 06:47:12;;;;;;;15.20;10.08;;;;;;;2.73;65.45;96359.64;1766062;80;22115;-56
2021/01/06 06:50:35;;;;;;;19.37;11.00;;;;;;;3.67;63.51;96372.11;1755704;80;21181;-56
2021/01/06 06:53:35;;;;;;;24.80;14.78;;;;;;;4.49;61.48;96364.36;1755514;80;21476;-55
2021/01/06 06:56:23;;;;;;;19.95;13.08;;;;;;;5.45;57.94;96361.55;1748071;80;21092;-56
2021/01/06 06:59:10;;;;;;;23.00;14.18;;;;;;;5.91;55.95;96377.52;1751476;81;21537;-56
2021/01/06 07:01:44;;;;;;;21.17;14.35;;;;;;;6.46;54.80;96364.58;1745144;81;21160;-56
2021/01/06 07:04:47;;;;;;;19.80;13.30;;;;;;;7.16;52.14;96369.09;1736197;81;21153;-56
2021/01/06 07:07:43;;;;;;;12.07;8.20;;;;;;;7.63;51.06;96372.25;1852255;76;28434;-56
2021/01/06 07:10:34;;;;;;;21.62;14.13;;;;;;;7.85;50.67;96366.11;1828252;78;21095;-57
2021/01/06 07:13:08;;;;;;;148.72;93.40;;;;;;;8.39;49.39;96365.25;1823533;78;21192;-57
2021/01/06 07:15:41;;;;;;;40.60;26.93;;;;;;;8.53;47.79;96354.50;1824728;77;21142;-60
2021/01/06 07:18:40;;;;;;;19.25;13.05;;;;;;;8.04;47.66;96358.03;1823515;78;21129;-57
2021/01/06 07:21:17;;;;;;;17.45;11.68;;;;;;;7.26;48.50;96362.91;1823853;78;21158;-56
2021/01/06 07:24:09;;;;;;;13.03;9.60;;;;;;;6.40;50.07;96360.62;1817395;78;21222;-52
2021/01/06 07:26:46;;;;;;;15.03;9.73;;;;;;;5.85;51.02;96374.81;1820372;78;21119;-53
2021/01/06 07:29:16;;;;;;;13.35;9.40;;;;;;;5.29;52.06;96374.38;1797807;78;21058;-54
2021/01/06 07:31:59;;;;;;;;;;;;;;;5.53;52.48;96383.02;1830847;77;21745;-54
2021/01/06 07:34:55;;;;;;;16.52;10.23;;;;;;;6.03;51.63;96378.14;1833898;76;20359;-55
2021/01/06 07:37:45;;;;;;;17.15;10.63;;;;;;;6.28;50.94;96379.34;1840928;77;21055;-54
2021/01/06 07:40:23;;;;;;;13.32;9.18;;;;;;;6.95;49.99;96373.31;1841482;78;21212;-53
2021/01/06 07:42:55;;;;;;;16.15;10.13;;;;;;;8.11;48.47;96377.38;1841036;77;21606;-55
2021/01/06 07:45:28;;;;;;;17.82;11.10;;;;;;;9.25;46.30;96376.81;1789709;79;21071;-54
2021/01/06 07:48:17;;;;;;;15.03;10.60;;;;;;;10.20;44.59;96381.42;1810547;78;21570;-54
2021/01/06 07:51:10;;;;;;;15.55;9.73;;;;;;;11.04;43.09;96375.67;1808728;79;21154;-54
2021/01/06 07:53:43;;;;;;;15.28;10.40;;;;;;;12.04;40.99;96382.25;1808512;78;21356;-55
2021/01/06 07:56:31;;;;;;;18.35;12.82;;;;;;;12.72;39.64;96383.27;1801116;78;21088;-55
2021/01/06 07:58:59;;;;;;;24.72;16.32;;;;;;;13.08;38.52;96384.59;1835487;78;21118;-54
2021/01/06 08:01:45;;;;;;;24.67;16.45;;;;;;;13.12;37.94;96370.00;1839915;77;21110;-54
2021/01/06 08:04:37;;;;;;;26.05;16.93;;;;;;;12.88;37.91;96381.05;1824053;77;21063;-54
2021/01/06 08:07:08;;;;;;;25.62;17.87;;;;;;;12.53;38.51;96386.55;1841333;77;21583;-54
2021/01/06 08:09:40;;;;;;;29.42;19.30;;;;;;;12.24;38.49;96383.25;1783850;78;21116;-55
2021/01/06 08:12:42;;;;;;;28.52;20.12;;;;;;;11.76;39.24;96388.78;1776336;80;21092;-54
2021/01/06 08:15:22;;;;;;;29.87;19.85;;;;;;;11.10;39.56;96388.20;1759885;80;21504;-53
2021/01/06 08:18:15;;;;;;;27.60;18.02;;;;;;;10.08;41.48;96407.30;1751864;80;21048;-54
2021/01/06 08:21:03;;;;;;;22.65;15.53;;;;;;;9.28;43.00;96400.38;1750839;80;21385;-54
2021/01/06 08:23:59;;;;;;;26.52;16.32;;;;;;;8.23;44.09;96399.48;1741354;80;21056;-54
2021/01/06 08:26:28;;;;;;;29.85;17.55;;;;;;;7.25;45.97;96413.67;1734937;81;21160;-54
2021/01/06 08:29:25;;;;;;;26.52;16.25;;;;;;;6.42;48.19;96406.45;1748426;80;21573;-54
2021/01/06 08:31:59;;;;;;;25.10;15.38;;;;;;;5.87;49.65;96417.21;1766505;80;21083;-53
2021/01/06 08:34:31;;;;;;;21.93;13.50;;;;;;;5.33;51.05;96416.24;1756837;80;21997;-53
2021/01/06 08:37:03;;;;;;;18.65;11.88;;;;;;;4.94;52.29;96414.80;1781553;79;21143;-54
2021/01/06 08:39:35;;;;;;;26.15;12.25;;;;;;;4.69;53.13;96421.18;1781538;80;21045;-53
2021/01/06 08:42:12;;;;;;;19.48;11.12;;;;;;;4.46;53.76;96423.59;1781646;80;21077;-53
2021/01/06 08:44:49;;;;;;;19.32;10.93;;;;;;;4.21;54.73;96426.07;1721399;82;21063;-53
2021/01/06 08:47:34;;;;;;;27.98;11.28;;;;;;;4.04;55.44;96429.41;1749857;80;22279;-54
2021/01/06 08:50:33;;;;;;;17.92;10.60;;;;;;;3.89;56.43;96427.58;1750578;80;21076;-57
2021/01/06 08:53:05;;;;;;;28.40;11.88;;;;;;;3.79;57.26;96424.59;1721422;82;21485;-53
2021/01/06 08:55:40;;;;;;;17.70;10.78;;;;;;;3.73;57.62;96422.77;1756542;80;21073;-54
2021/01/06 08:58:12;;;;;;;23.38;10.53;;;;;;;3.73;57.93;96435.14;1781466;80;21159;-53
2021/01/06 09:00:54;;;;;;;18.23;10.03;;;;;;;3.75;57.91;96437.20;1780294;79;21469;-53
2021/01/06 09:03:39;;;;;;;20.45;11.43;;;;;;;3.80;58.21;96436.97;1750550;80;21517;-53
2021/01/06 09:06:15;;;;;;;19.50;11.53;;;;;;;3.82;58.60;96446.28;1740471;80;21616;-54
2021/01/06 09:09:06;;;;;;;17.02;11.05;;;;;;;3.86;58.96;96447.81;1734956;82;21096;-53
2021/01/06 09:14:38;;;;;;;20.95;11.50;;;;;;;4.01;59.18;96442.85;1876552;76;28125;-53
2021/01/06 09:17:19;;;;;;;15.63;10.60;;;;;;;3.98;58.92;96436.57;1822645;77;21075;-53
2021/01/06 09:19:58;;;;;;;18.05;11.43;;;;;;;3.99;58.91;96435.22;1810599;78;21066;-53
2021/01/06 09:22:25;;;;;;;;;;;;;;;4.03;59.02;96430.80;1844257;78;21496;-54
2021/01/06 09:24:53;;;;;;;18.87;11.45;;;;;;;4.10;59.13;96431.34;1841635;77;20127;-54
2021/01/06 09:27:39;;;;;;;23.27;11.48;;;;;;;4.13;59.17;96426.03;1841685;78;21143;-54
2021/01/06 09:30:18;;;;;;;19.75;10.90;;;;;;;4.07;59.21;96428.91;1841020;78;21110;-53
2021/01/06 09:32:46;;;;;;;26.62;13.05;;;;;;;4.02;59.37;96431.69;1824674;78;21202;-53
2021/01/06 09:35:18;;;;;;;19.27;13.62;;;;;;;4.00;59.07;96421.48;1831295;78;21146;-53
2021/01/06 09:38:15;;;;;;;32.70;14.13;;;;;;;3.95;59.44;96417.48;1826749;77;21027;-54
2021/01/06 09:40:43;;;;;;;23.50;13.18;;;;;;;3.95;59.41;96417.03;1841498;77;21158;-52
2021/01/06 09:43:25;;;;;;;22.15;11.88;;;;;;;3.87;59.81;96421.69;1841660;77;21103;-53
2021/01/06 09:45:53;;;;;;;20.20;11.48;;;;;;;3.83;60.17;96429.13;1825499;77;21290;-52
2021/01/06 09:48:23;;;;;;;22.32;10.55;;;;;;;3.76;60.52;96422.17;1841302;78;21153;-53
2021/01/06 09:50:53;;;;;;;26.80;10.65;;;;;;;3.76;60.60;96427.30;1839057;78;21111;-53
2021/01/06 09:53:24;;;;;;;15.65;10.40;;;;;;;3.72;60.89;96425.80;1812090;78;21158;-55
2021/01/06 09:55:53;;;;;;;23.73;11.12;;;;;;;3.72;61.24;96419.38;1828528;78;21150;-52
2021/01/06 09:58:34;;;;;;;25.97;11.28;;;;;;;3.71;61.36;96410.01;1779974;79;22274;-53
2021/01/06 13:02:25;;;;;;;19.07;12.70;;;;;;;4.87;67.01;96307.59;1661665;84;21656;-58
2021/01/06 13:04:56;;;;;;;17.50;11.68;;;;;;;4.87;67.26;96309.31;1657946;86;21167;-56
2021/01/06 13:07:28;;;;;;;19.60;13.13;;;;;;;4.85;67.39;96300.43;1659561;86;21168;-57
2021/01/06 13:10:20;;;;;;;17.85;12.65;;;;;;;4.79;67.51;96302.03;1656564;86;21505;-58
2021/01/06 13:12:57;;;;;;;28.47;10.45;;;;;;;4.71;67.88;96292.13;1656333;86;21228;-56
2021/01/06 13:15:42;;;;;;;25.85;10.90;;;;;;;4.65;67.92;96292.91;1687502;83;21236;-56
2021/01/06 13:18:15;;;;;;;70.92;11.30;;;;;;;4.60;68.26;96296.99;1709050;83;21827;-56
2021/01/06 13:21:15;;;;;;;32.50;10.55;;;;;;;4.57;68.30;96292.01;1656926;85;21149;-56
2021/01/06 13:24:12;;;;;;;16.87;11.45;;;;;;;4.48;68.22;96290.75;1633117;87;21200;-57
2021/01/06 13:26:54;;;;;;;13.93;10.25;;;;;;;4.35;69.00;96290.53;1686263;82;21223;-56
2021/01/06 13:29:30;;;;;;;18.17;10.65;;;;;;;4.36;69.31;96294.77;1694443;84;21633;-57
2021/01/06 13:32:12;;;;;;;42.88;10.53;;;;;;;4.39;69.40;96298.48;1676551;83;21473;-57
2021/01/06 13:34:48;;;;;;;43.87;10.58;;;;;;;4.44;69.54;96290.55;1644291;86;21092;-56
2021/01/06 13:37:34;;;;;;;41.00;10.03;;;;;;;4.51;69.61;96297.48;1697082;83;21097;-59
2021/01/06 13:40:10;;;;;;;42.48;11.22;;;;;;;4.49;69.56;96290.28;1703264;83;21394;-58
2021/01/06 13:42:42;;;;;;;45.30;10.43;;;;;;;4.48;69.46;96286.89;1729032;82;21094;-57
2021/01/06 13:45:34;;;;;;;46.80;11.20;;;;;;;4.47;69.13;96288.25;1698879;83;21201;-57
2021/01/06 13:48:22;;;;;;;22.55;11.83;;;;;;;4.39;69.19;96284.34;1695622;84;21213;-56
2021/01/06 13:51:11;;;;;;;15.58;11.85;;;;;;;4.32;69.47;96282.16;1698130;82;21129;-57
2021/01/06 13:54:02;;;;;;;21.52;11.08;;;;;;;4.35;70.01;96281.55;1705201;84;22120;-57
2021/01/06 13:56:52;;;;;;;46.92;11.22;;;;;;;4.42;70.05;96288.48;1695470;84;21218;-56
2021/01/06 13:59:55;;;;;;;33.23;10.63;;;;;;;4.47;69.96;96280.55;1697901;84;21133;-57
2021/01/06 14:02:50;;;;;;;51.35;11.22;;;;;;;4.49;69.73;96271.02;1666851;85;21167;-56
2021/01/06 14:05:36;;;;;;;47.05;10.60;;;;;;;4.47;69.70;96280.08;1679202;85;21106;-56
2021/01/06 14:08:28;;;;;;;41.15;11.08;;;;;;;4.41;69.72;96272.71;1674708;84;21422;-56
2021/01/06 14:11:25;;;;;;;16.60;10.78;;;;;;;4.33;69.75;96264.56;1675304;84;21175;-56
2021/01/06 14:14:20;;;;;;;20.92;11.10;;;;;;;4.12;69.65;96269.04;1656223;85;21189;-57
2021/01/06 14:17:03;;;;;;;16.17;11.18;;;;;;;3.93;70.28;96256.27;1665558;85;21077;-56
2021/01/06 14:20:01;;;;;;;25.35;11.75;;;;;;;3.92;70.41;96254.62;1656716;85;21153;-57
2021/01/06 14:22:43;;;;;;;25.57;11.65;;;;;;;3.93;71.62;96260.97;1660363;86;21232;-56
2021/01/06 14:25:31;;;;;;;42.05;11.90;;;;;;;3.85;71.10;96252.82;1682878;84;21225;-57
2021/01/06 14:28:16;;;;;;;21.20;12.78;;;;;;;3.80;71.05;96247.91;1697009;84;21066;-57
2021/01/06 14:31:16;;;;;;;28.55;11.50;;;;;;;3.82;71.08;96252.50;1674754;85;22017;-55
2021/01/06 14:34:00;;;;;;;17.32;11.45;;;;;;;3.85;70.89;96252.82;1641071;85;21135;-54
2021/01/06 14:36:57;;;;;;;18.73;11.80;;;;;;;3.87;70.79;96247.16;1654620;86;21379;-55
2021/01/06 14:39:32;;;;;;;18.82;11.38;;;;;;;3.89;70.73;96245.80;1643920;86;21115;-54
2021/01/06 14:42:30;;;;;;;19.40;10.68;;;;;;;3.90;70.87;96249.57;1653235;85;21243;-58
2021/01/06 14:45:15;;;;;;;21.65;10.43;;;;;;;3.95;70.75;96245.50;1650947;85;21189;-58
2021/01/06 14:48:18;;;;;;;17.37;11.48;;;;;;;3.97;70.51;96244.96;1648417;85;21161;-58
2021/01/06 14:51:07;;;;;;;15.55;11.78;;;;;;;3.90;70.35;96245.72;1673630;84;21470;-57
2021/01/06 14:53:43;;;;;;;21.20;11.10;;;;;;;3.88;70.22;96243.66;1678590;83;21165;-56
2021/01/06 14:56:27;;;;;;;18.20;11.38;;;;;;;3.87;70.06;96234.31;1673582;84;21180;-58
2021/01/06 14:59:07;;;;;;;21.45;12.55;;;;;;;3.84;69.99;96230.61;1641795;85;21096;-57
2021/01/06 15:01:39;;;;;;;19.42;12.65;;;;;;;3.79;70.09;96228.73;1659155;84;21174;-57
2021/01/06 15:04:34;;;;;;;17.98;11.97;;;;;;;3.78;70.11;96231.77;1693651;83;21206;-57
2021/01/06 15:07:32;;;;;;;23.67;13.95;;;;;;;3.76;70.29;96233.55;1692542;83;21595;-58
2021/01/06 15:10:27;;;;;;;20.80;14.10;;;;;;;3.76;70.32;96236.11;1682023;83;21168;-57
2021/01/06 15:13:19;;;;;;;23.67;15.10;;;;;;;3.77;70.18;96235.69;1693782;83;21180;-57
2021/01/06 15:15:53;;;;;;;23.77;15.10;;;;;;;3.76;70.11;96230.16;1686113;83;21157;-58
2021/01/06 15:18:23;;;;;;;22.62;15.55;;;;;;;;;;1684852;83;22277;-57
2021/01/06 15:21:08;;;;;;;22.50;16.07;;;;;;;3.68;70.09;96244.20;1685919;83;21606;-57
2021/01/06 15:23:39;;;;;;;24.70;16.07;;;;;;;3.65;70.13;96242.22;1680995;83;21505;-56
2021/01/06 15:26:21;;;;;;;23.00;15.88;;;;;;;;;;1691379;83;21131;-57
2021/01/06 15:28:54;;;;;;;24.85;17.12;;;;;;;3.68;69.95;96237.80;1682719;83;21133;-57
2021/01/06 15:31:26;;;;;;;31.45;20.57;;;;;;;3.73;69.96;96238.83;1681755;83;22276;-57
2021/01/06 15:34:02;;;;;;;38.23;22.65;;;;;;;3.75;69.86;96242.61;1681727;83;21171;-57
2021/01/06 15:36:39;;;;;;;35.13;21.60;;;;;;;3.81;69.76;96234.15;1834103;75;26692;-57